LIRE

Pratica Di Mare Airport

Pomezia, Italy
TAF LIRE 192300Z 2000/2009 05007KT 9999 SCT020 SCT040 TEMPO 2000/2009 RA BKN030
Issued Valid From Valid To
Sep-19 @ 23:00 UTC
(2 hours ago)
Sep-20 @ 00:00 UTC
(42 minutes ago)
Sep-20 @ 09:00 UTC
(in 8 hours)
Sep-20 @ 00:00 to Sep-20 @ 09:00
TAF LIRE 192300Z 2000/2009 05007KT 9999 SCT020 SCT040
Wind Visibility Clouds
50° at 7 knots 10,000+ meters
  • Scattered at 2,000' AGL
  • Scattered at 4,000' AGL
Temporary Sep-20 @ 00:00 to Sep-20 @ 09:00
TEMPO 2000/2009 RA BKN030
Clouds Conditions
  • Broken at 3,000' AGL
  • Rain
TAF LIRE 192300Z 2000/2009 05007KT 9999 SCT020 SCT040 TEMPO 2000/2009 RA BKN030
Issued Sep-19 @ 23:00 UTC
(2 hours ago)
Valid From Sep-20 @ 00:00 UTC
(42 minutes ago)
Valid To Sep-20 @ 09:00 UTC
(in 8 hours)
Sep-20 @ 00:00 - Sep-20 @ 09:00
Wind Visibility
50° at 7 knots 10,000+ meters
Clouds
  • Scattered at 2,000' AGL
  • Scattered at 4,000' AGL
Temporary Sep-20 @ 00:00 - Sep-20 @ 09:00
Clouds
  • Broken at 3,000' AGL
Conditions
  • Rain